地図

経路データ

SID SEASON NUMBER BASIN SUBBASIN NAME ISO_TIME NATURE LAT LON WMO_WIND WMO_PRES WMO_AGENCY TRACK_TYPE DIST2LAND LANDFALL IFLAG USA_AGENCY USA_ATCF_ID USA_LAT USA_LON USA_RECORD USA_STATUS USA_WIND USA_PRES USA_SSHS USA_R34_NE USA_R34_SE USA_R34_SW USA_R34_NW USA_R50_NE USA_R50_SE USA_R50_SW USA_R50_NW USA_R64_NE USA_R64_SE USA_R64_SW USA_R64_NW USA_POCI USA_ROCI USA_RMW USA_EYE TOKYO_LAT TOKYO_LON TOKYO_GRADE TOKYO_WIND TOKYO_PRES TOKYO_R50_DIR TOKYO_R50_LONG TOKYO_R50_SHORT TOKYO_R30_DIR TOKYO_R30_LONG TOKYO_R30_SHORT TOKYO_LAND CMA_LAT CMA_LON CMA_CAT CMA_WIND CMA_PRES HKO_LAT HKO_LON HKO_CAT HKO_WIND HKO_PRES NEWDELHI_LAT NEWDELHI_LON NEWDELHI_GRADE NEWDELHI_WIND NEWDELHI_PRES NEWDELHI_CI NEWDELHI_DP NEWDELHI_POCI REUNION_LAT REUNION_LON REUNION_TYPE REUNION_WIND REUNION_PRES REUNION_TNUM REUNION_CI REUNION_RMW REUNION_R34_NE REUNION_R34_SE REUNION_R34_SW REUNION_R34_NW REUNION_R50_NE REUNION_R50_SE REUNION_R50_SW REUNION_R50_NW REUNION_R64_NE REUNION_R64_SE REUNION_R64_SW REUNION_R64_NW BOM_LAT BOM_LON BOM_TYPE BOM_WIND BOM_PRES BOM_TNUM BOM_CI BOM_RMW BOM_R34_NE BOM_R34_SE BOM_R34_SW BOM_R34_NW BOM_R50_NE BOM_R50_SE BOM_R50_SW BOM_R50_NW BOM_R64_NE BOM_R64_SE BOM_R64_SW BOM_R64_NW BOM_ROCI BOM_POCI BOM_EYE BOM_POS_METHOD BOM_PRES_METHOD NADI_LAT NADI_LON NADI_CAT NADI_WIND NADI_PRES WELLINGTON_LAT WELLINGTON_LON WELLINGTON_WIND WELLINGTON_PRES DS824_LAT DS824_LON DS824_STAGE DS824_WIND DS824_PRES TD9636_LAT TD9636_LON TD9636_STAGE TD9636_WIND TD9636_PRES TD9635_LAT TD9635_LON TD9635_WIND TD9635_PRES TD9635_ROCI NEUMANN_LAT NEUMANN_LON NEUMANN_CLASS NEUMANN_WIND NEUMANN_PRES MLC_LAT MLC_LON MLC_CLASS MLC_WIND MLC_PRES USA_GUST BOM_GUST BOM_GUST_PER REUNION_GUST REUNION_GUST_PER USA_SEAHGT USA_SEARAD_NE USA_SEARAD_SE USA_SEARAD_SW USA_SEARAD_NW STORM_SPEED STORM_DIR
1946061S14153 1946 18 SP EA NOT_NAMED 1946-03-01 12:00:00 NR -13.6000 153.300 main 439 439 __________O___ -1 -13.6000 153.300 7 1 232
1946061S14153 1946 18 SP EA NOT_NAMED 1946-03-01 15:00:00 NR -13.6343 153.251 main 439 432 __________P___ -1 -13.6343 153.251 7 2 236
1946061S14153 1946 18 SP EA NOT_NAMED 1946-03-01 18:00:00 NR -13.6848 153.172 main 440 434 __________P___ -1 -13.6848 153.172 7 3 238
1946061S14153 1946 18 SP EA NOT_NAMED 1946-03-01 21:00:00 NR -13.7680 153.032 main 436 430 __________P___ -1 -13.7680 153.032 7 4 239
1946061S14153 1946 18 SP EA NOT_NAMED 1946-03-01 23:00:00 NR -13.8496 152.889 main 430 434 __________P___ -1 -13.8496 152.889 7 5 239
1946061S14153 1946 18 SP EA NOT_NAMED 1946-03-02 00:00:00 NR -13.9000 152.800 main 434 428 __________O___ -1 -13.9000 152.800 7 7 240
1946061S14153 1946 18 SP EA NOT_NAMED 1946-03-02 03:00:00 NR -14.0915 152.454 main 438 433 __________P___ -1 -14.0915 152.454 7 9 241
1946061S14153 1946 18 SP EA NOT_NAMED 1946-03-02 06:00:00 NR -14.3323 152.007 main 437 437 __________P___ -1 -14.3323 152.007 7 11 241
1946061S14153 1946 18 SP EA NOT_NAMED 1946-03-02 09:00:00 NR -14.6070 151.482 main 452 450 __________P___ -1 -14.6070 151.482 7 12 242
1946061S14153 1946 18 SP EA NOT_NAMED 1946-03-02 10:00:00 NR -14.7033 151.293 main 458 456 __________P___ -1 -14.7033 151.293 7 13 242
1946061S14153 1946 18 SP EA NOT_NAMED 1946-03-02 11:00:00 NR -14.8012 151.099 main 465 463 __________P___ -1 -14.8012 151.099 7 13 243
1946061S14153 1946 18 SP EA NOT_NAMED 1946-03-02 12:00:00 NR -14.9000 150.900 main 473 472 __________O___ -1 -14.9000 150.900 7 14 243
1946061S14153 1946 18 SP EA NOT_NAMED 1946-03-02 15:00:00 NR -15.2193 150.237 main 501 429 __________P___ -1 -15.2193 150.237 7 15 244
1946061S14153 1946 18 SP EA NOT_NAMED 1946-03-02 18:00:00 NR -15.5467 149.534 main 419 347 __________P___ -1 -15.5467 149.534 7 15 244
1946061S14153 1946 18 SP EA NOT_NAMED 1946-03-02 21:00:00 NR -15.8506 148.865 main 342 299 __________P___ -1 -15.8506 148.865 7 14 245
1946061S14153 1946 18 SP EA NOT_NAMED 1946-03-02 23:00:00 NR -16.0248 148.472 main 299 274 __________P___ -1 -16.0248 148.472 7 12 245
1946061S14153 1946 18 SP EA NOT_NAMED 1946-03-03 00:00:00 NR -16.1000 148.300 main 274 241 __________O___ -1 -16.1000 148.300 7 8 246
1946061S14153 1946 18 SP EA NOT_NAMED 1946-03-03 03:00:00 NR -16.2481 147.938 main 231 207 __________P___ -1 -16.2481 147.938 7 6 248
1946061S14153 1946 18 SP EA NOT_NAMED 1946-03-03 06:00:00 NR -16.3435 147.686 main 207 183 __________P___ -1 -16.3435 147.686 7 5 248
1946061S14153 1946 18 SP EA NOT_NAMED 1946-03-03 09:00:00 NR -16.4172 147.491 main 183 169 __________P___ -1 -16.4172 147.491 7 4 248
1946061S14153 1946 18 SP EA NOT_NAMED 1946-03-03 11:00:00 NR -16.4695 147.367 main 169 159 __________P___ -1 -16.4695 147.367 7 4 246
1946061S14153 1946 18 SP EA NOT_NAMED 1946-03-03 12:00:00 NR -16.5000 147.300 main 159 125 __________O___ -1 -16.5000 147.300 7 6 243
1946061S14153 1946 18 SP EA NOT_NAMED 1946-03-03 15:00:00 NR -16.6480 146.996 main 125 88 __________P___ -1 -16.6480 146.996 7 7 242
1946061S14153 1946 18 SP EA NOT_NAMED 1946-03-03 18:00:00 NR -16.8078 146.690 main 88 53 __________P___ -1 -16.8078 146.690 7 6 240
1946061S14153 1946 18 SP EA NOT_NAMED 1946-03-03 21:00:00 NR -16.9636 146.415 main 53 38 __________P___ -1 -16.9636 146.415 7 6 239
1946061S14153 1946 18 SP EA NOT_NAMED 1946-03-03 23:00:00 NR -17.0577 146.263 main 38 30 __________P___ -1 -17.0577 146.263 7 5 237
1946061S14153 1946 18 SP EA NOT_NAMED 1946-03-04 00:00:00 NR -17.1000 146.200 main 30 15 __________O___ -1 -17.1000 146.200 7 3 233
1946061S14153 1946 18 SP EA NOT_NAMED 1946-03-04 03:00:00 NR -17.1882 146.081 main 15 0 __________P___ -1 -17.1882 146.081 7 2 227
1946061S14153 1946 18 SP EA NOT_NAMED 1946-03-04 06:00:00 NR -17.2572 146.025 main 0 0 __________P___ -1 -17.2572 146.025 7 2 209
1946061S14153 1946 18 SP EA NOT_NAMED 1946-03-04 09:00:00 NR -17.3227 146.006 main 0 0 __________P___ -1 -17.3227 146.006 7 1 0
1946061S14153 1946 18 SP EA NOT_NAMED 1946-03-04 11:00:00 NR -17.3719 146.002 main 0 0 __________P___ -1 -17.3719 146.002 7 2 192
1946061S14153 1946 18 SP EA NOT_NAMED 1946-03-04 12:00:00 NR -17.4000 146.000 main 0 0 __________O___ -1 -17.4000 146.000 7 3 216
1946061S14153 1946 18 SP EA NOT_NAMED 1946-03-04 15:00:00 NR -17.5144 145.891 main 0 0 __________P___ -1 -17.5144 145.891 7 3 218
1946061S14153 1946 18 SP EA NOT_NAMED 1946-03-04 18:00:00 NR -17.6419 145.801 main 0 0 __________P___ -1 -17.6419 145.801 7 3 202
1946061S14153 1946 18 SP EA NOT_NAMED 1946-03-04 21:00:00 NR -17.7734 145.785 main 0 0 __________P___ -1 -17.7734 145.785 7 3 170
1946061S14153 1946 18 SP EA NOT_NAMED 1946-03-04 23:00:00 NR -17.8589 145.844 main 0 0 __________P___ -1 -17.8589 145.844 7 3 139
1946061S14153 1946 18 SP EA NOT_NAMED 1946-03-05 00:00:00 NR -17.9000 145.900 main 0 0 __________O___ -1 -17.9000 145.900 7 5 112
1946061S14153 1946 18 SP EA NOT_NAMED 1946-03-05 03:00:00 NR -17.9952 146.193 main 21 21 __________P___ -1 -17.9952 146.193 7 7 105
1946061S14153 1946 18 SP EA NOT_NAMED 1946-03-05 06:00:00 NR -18.0852 146.620 main 61 61 __________P___ -1 -18.0852 146.620 7 9 102
1946061S14153 1946 18 SP EA NOT_NAMED 1946-03-05 09:00:00 NR -18.1826 147.137 main 95 95 __________P___ -1 -18.1826 147.137 7 10 102
1946061S14153 1946 18 SP EA NOT_NAMED 1946-03-05 11:00:00 NR -18.2578 147.510 main 123 123 __________P___ -1 -18.2578 147.510 7 11 102
1946061S14153 1946 18 SP EA NOT_NAMED 1946-03-05 12:00:00 NR -18.3000 147.700 main 127 123 __________O___ -1 -18.3000 147.700 7 11 108
1946061S14153 1946 18 SP EA NOT_NAMED 1946-03-05 15:00:00 NR -18.4735 148.226 main 131 131 __________P___ -1 -18.4735 148.226 7 11 109
1946061S14153 1946 18 SP EA NOT_NAMED 1946-03-05 18:00:00 NR -18.6645 148.789 main 154 154 __________P___ -1 -18.6645 148.789 7 12 109
1946061S14153 1946 18 SP EA NOT_NAMED 1946-03-05 21:00:00 NR -18.8483 149.383 main 176 167 __________P___ -1 -18.8483 149.383 7 12 107
1946061S14153 1946 18 SP EA NOT_NAMED 1946-03-05 23:00:00 NR -18.9545 149.792 main 179 179 __________P___ -1 -18.9545 149.792 7 12 105
1946061S14153 1946 18 SP EA NOT_NAMED 1946-03-06 00:00:00 NR -19.0000 150.000 main 192 192 __________O___ -1 -19.0000 150.000 7 12 100
1946061S14153 1946 18 SP EA NOT_NAMED 1946-03-06 03:00:00 NR -19.0899 150.637 main 231 231 __________P___ -1 -19.0899 150.637 7 12 97
1946061S14153 1946 18 SP EA NOT_NAMED 1946-03-06 06:00:00 NR -19.1448 151.293 main 294 294 __________P___ -1 -19.1448 151.293 7 12 94
1946061S14153 1946 18 SP EA NOT_NAMED 1946-03-06 09:00:00 NR -19.1773 151.953 main 355 355 __________P___ -1 -19.1773 151.953 7 12 93
1946061S14153 1946 18 SP EA NOT_NAMED 1946-03-06 11:00:00 NR -19.1928 152.387 main 393 393 __________P___ -1 -19.1928 152.387 7 12 92
1946061S14153 1946 18 SP EA NOT_NAMED 1946-03-06 12:00:00 NR -19.2000 152.600 main 408 408 __________O___ -1 -19.2000 152.600 7 12 93
1946061S14153 1946 18 SP EA NOT_NAMED 1946-03-06 15:00:00 NR -19.2272 153.211 main 442 442 __________P___ -1 -19.2272 153.211 7 11 92
1946061S14153 1946 18 SP EA NOT_NAMED 1946-03-06 18:00:00 NR -19.2488 153.808 main 481 480 __________P___ -1 -19.2488 153.808 7 11 92
1946061S14153 1946 18 SP EA NOT_NAMED 1946-03-06 21:00:00 NR -19.2710 154.401 main 517 517 __________P___ -1 -19.2710 154.401 7 11 92
1946061S14153 1946 18 SP EA NOT_NAMED 1946-03-06 23:00:00 NR -19.2892 154.799 main 548 548 __________P___ -1 -19.2892 154.799 7 11 93
1946061S14153 1946 18 SP EA NOT_NAMED 1946-03-07 00:00:00 NR -19.3000 155.000 main 564 564 __________O___ -1 -19.3000 155.000 7 12 94
1946061S14153 1946 18 SP EA NOT_NAMED 1946-03-07 03:00:00 NR -19.3463 155.614 main 613 613 __________P___ -1 -19.3463 155.614 7 12 95
1946061S14153 1946 18 SP EA NOT_NAMED 1946-03-07 06:00:00 NR -19.3991 156.235 main 659 659 __________P___ -1 -19.3991 156.235 7 12 95
1946061S14153 1946 18 SP EA NOT_NAMED 1946-03-07 09:00:00 NR -19.4525 156.864 main 698 698 __________P___ -1 -19.4525 156.864 7 12 95
1946061S14153 1946 18 SP EA NOT_NAMED 1946-03-07 11:00:00 NR -19.4852 157.287 main 706 685 __________P___ -1 -19.4852 157.287 7 12 95
1946061S14153 1946 18 SP EA NOT_NAMED 1946-03-07 12:00:00 NR -19.5000 157.500 main 685 623 __________O___ -1 -19.5000 157.500 7 12 94
1946061S14153 1946 18 SP EA NOT_NAMED 1946-03-07 15:00:00 NR -19.5370 158.143 main 623 549 __________P___ -1 -19.5370 158.143 7 12 93
1946061S14153 1946 18 SP EA NOT_NAMED 1946-03-07 18:00:00 NR -19.5644 158.793 main 549 487 __________P___ -1 -19.5644 158.793 7 12 92
1946061S14153 1946 18 SP EA NOT_NAMED 1946-03-07 21:00:00 NR -19.5846 159.445 main 487 435 __________P___ -1 -19.5846 159.445 7 12 92
1946061S14153 1946 18 SP EA NOT_NAMED 1946-03-07 23:00:00 NR -19.5953 159.882 main 435 415 __________P___ -1 -19.5953 159.882 7 12 91
1946061S14153 1946 18 SP MM NOT_NAMED 1946-03-08 00:00:00 NR -19.6000 160.100 main 415 __________O___ -1 -19.6000 160.100 7 12 91

デジタル台風データ・検索

IBTrACS Databaseについて

本データベースは、米国NOAAが公開する1842年以降の世界の熱帯低気圧のベストトラックデータアーカイブInternational Best Track Archive for Climate Stewardship (IBTrACS)を、ウェブで閲覧しやすい形式に変換したものです。

最終更新日:2021-12-03